ru-music.com alexa rank chart, ru-music.com alexa rank daily changes

ru-music.com alexa rank chart, ru-music.com alexa rank daily changes

ru-music.com
Actual rank:
31 567

RANK HISTORY

Date Rank Diff
2019/02/17 31 567 +222
2019/02/16 31 345 -9 416
2019/02/15 40 761 +4 147
2019/02/14 36 614 -1 165
2019/02/13 37 779 +6 968
2019/02/12 30 811 +4 066
2019/02/11 26 745 -6 803
2019/02/10 33 548 -6 335
2019/02/09 39 883 +14 834
2019/02/08 25 049 -2 629
2019/02/07 27 678 -2 481
2019/02/06 30 159 +6 186
2019/02/05 23 973 +6 900
2019/02/04 17 073 -13 523
2019/02/03 30 596 +6 238
2019/02/02 24 358 +1 490
2019/02/01 22 868 -269
2019/01/31 23 137 +700
2019/01/30 22 437 +6 682
2019/01/29 15 755 +409
2019/01/28 15 346 -783
2019/01/27 16 129 -2 184
2019/01/26 18 313 -4 299
2019/01/25 22 612 -1 478
2019/01/24 24 090 -5 902
2019/01/23 29 992 +10 702
2019/01/22 19 290 +594
2019/01/21 18 696 -3 691
2019/01/20 22 387 -840
2019/01/19 23 227 +2 815
2019/01/18 20 412 +149
2019/01/17 20 263 -8 873
2019/01/16 29 136 +881
2019/01/15 28 255 +10 624
2019/01/14 17 631 -20 485
2019/01/13 38 116 +15 725
2019/01/12 22 391 -10 008
2019/01/11 32 399 -5 301
2019/01/10 37 700 +1 926
2019/01/09 35 774 +19 044
2019/01/08 16 730 +37
2019/01/07 16 693 -3 942
2019/01/06 20 635 -2 371
2019/01/05 23 006 +1 894
2019/01/04 21 112 +4 894
2019/01/03 16 218 +3 543
2019/01/02 12 675 +648
2019/01/01 12 027 -366
2018/12/31 12 393 -2 271
2018/12/30 14 664 -1 328
2018/12/29 15 992 +1 862
2018/12/28 14 130 +1 768
2018/12/27 12 362 -2 114
2018/12/26 14 476 +2 852
2018/12/25 11 624 +325
2018/12/24 11 299 -4 719
2018/12/23 16 018 +628
2018/12/22 15 390 -5 022
2018/12/21 20 412 +673
2018/12/20 19 739 -4 270
2018/12/19 24 009

WIDGET FOR YOUR SITE

DOMAINS WITH THE NEAREST RANK

Domain Rank
confex.com 31 562
crusoe.com.br 31 563
bitmart.com 31 564
jacobs.com 31 565
bpm-power.com 31 566
ru-music.com 31 567
makeblock.com 31 568
phoenixads.co.in 31 569
brandingforum.org 31 570
porntopic.com 31 571
illustrators.ru 31 572

DOMAINS WITH THE NEAREST RANK BY TLD .com

Domain Rank
180graus.com 31 560
confex.com 31 562
bitmart.com 31 564
jacobs.com 31 565
bpm-power.com 31 566
ru-music.com 31 567
makeblock.com 31 568
porntopic.com 31 571
rmunify.com 31 574
footybite.com 31 579
explainthatstuff.com 31 582